Time;durP1;ratioP1;P1;durP2;ratioP2;P2;SDS_P1;SDS_P2;PMS_P1;PMS_P2;Temp;Humidity;BMP_temperature;BMP_pressure;BME280_temperature;BME280_humidity;BME280_pressure;Samples;Min_cycle;Max_cycle;Signal;HPM_P1;HPM_P2
2023/10/06 00:01:40;;;;;;;10.77;7.60;;;;;;;15.04;86.13;95694.53;5008175;28;20201;-64
2023/10/06 00:04:07;;;;;;;8.82;7.65;;;;;;;15.03;85.96;95682.63;5011317;28;20271;-64
2023/10/06 00:06:40;;;;;;;12.05;8.07;;;;;;;15.07;85.96;95689.31;5007091;28;20235;-64
2023/10/06 00:09:09;;;;;;;8.50;7.75;;;;;;;15.03;86.32;95671.56;4985822;28;20200;-63
2023/10/06 00:11:37;;;;;;;9.50;7.85;;;;;;;15.01;85.65;95668.22;5015468;28;20216;-66
2023/10/06 00:14:08;;;;;;;12.40;8.73;;;;;;;14.99;85.91;95675.97;5007423;28;20227;-65
2023/10/06 00:16:39;;;;;;;13.25;7.90;;;;;;;15.04;85.44;95678.34;5018302;28;20204;-64
2023/10/06 00:19:21;;;;;;;9.40;7.85;;;;;;;15.08;85.63;95677.34;5016078;28;20638;-62
2023/10/06 00:22:01;;;;;;;7.90;7.20;;;;;;;15.16;85.02;95670.16;5003204;28;20731;-64
2023/10/06 00:24:28;;;;;;;14.70;9.27;;;;;;;15.05;85.58;95670.59;5007419;28;20204;-63
2023/10/06 00:26:57;;;;;;;8.23;7.32;;;;;;;14.91;86.16;95673.72;5003840;28;20248;-63
2023/10/06 00:29:24;;;;;;;10.95;8.02;;;;;;;14.88;86.25;95673.00;5002872;28;20295;-63
2023/10/06 00:31:51;;;;;;;10.10;7.95;;;;;;;14.85;86.13;95663.72;5002075;28;20679;-65
2023/10/06 00:34:19;;;;;;;10.65;8.27;;;;;;;14.95;86.01;95661.63;4996553;28;20274;-63
2023/10/06 00:36:51;;;;;;;10.70;8.32;;;;;;;14.93;85.79;95668.53;5006299;28;20201;-65
2023/10/06 00:39:23;;;;;;;10.63;8.07;;;;;;;14.89;85.96;95670.38;5002978;28;20200;-65
2023/10/06 00:41:55;;;;;;;9.20;8.07;;;;;;;14.85;85.97;95670.56;5006833;28;20229;-65
2023/10/06 00:44:24;;;;;;;10.32;8.45;;;;;;;14.95;85.89;95675.25;5004317;28;20717;-64
2023/10/06 00:46:51;;;;;;;14.27;8.18;;;;;;;14.92;85.37;95685.63;5006252;28;20667;-64
2023/10/06 00:49:19;;;;;;;9.82;7.35;;;;;;;14.89;85.21;95685.75;5006426;28;20216;-65
2023/10/06 00:51:47;;;;;;;13.23;7.25;;;;;;;14.85;85.50;95684.19;5007303;28;20205;-62
2023/10/06 00:54:14;;;;;;;8.45;7.00;;;;;;;14.86;85.49;95687.59;5007227;28;20263;-65
2023/10/06 00:56:42;;;;;;;11.90;7.25;;;;;;;14.93;85.26;95684.72;5007107;28;20278;-63
2023/10/06 00:59:11;;;;;;;7.60;6.85;;;;;;;14.96;85.32;95682.03;5006388;28;20282;-63
2023/10/06 01:01:37;;;;;;;7.75;6.53;;;;;;;14.95;84.93;95677.00;5005351;28;20752;-64
2023/10/06 01:04:08;;;;;;;10.02;7.00;;;;;;;14.83;85.61;95677.50;5004693;28;20781;-65
2023/10/06 01:06:37;;;;;;;7.70;7.00;;;;;;;14.86;85.70;95680.75;5006843;28;20597;-65
2023/10/06 01:09:15;;;;;;;9.25;6.80;;;;;;;14.80;86.57;95669.94;5018066;28;20203;-65
2023/10/06 01:11:45;;;;;;;8.73;7.70;;;;;;;14.82;86.40;95675.84;5008740;28;20291;-66
2023/10/06 01:14:14;;;;;;;10.40;7.32;;;;;;;14.69;86.12;95667.81;5008594;28;20620;-64
2023/10/06 01:16:43;;;;;;;10.00;7.13;;;;;;;14.58;86.61;95669.97;5017995;28;20211;-63
2023/10/06 01:19:17;;;;;;;10.60;7.13;;;;;;;14.56;86.48;95666.63;5020752;28;20686;-63
2023/10/06 01:21:46;;;;;;;14.60;6.90;;;;;;;14.59;86.49;95666.53;5011967;28;20356;-63
2023/10/06 01:24:15;;;;;;;8.05;7.25;;;;;;;14.66;86.41;95673.03;5012254;28;20285;-64
2023/10/06 01:26:42;;;;;;;7.05;6.53;;;;;;;14.57;86.73;95679.38;5012045;28;20199;-63
2023/10/06 01:29:11;;;;;;;13.93;7.43;;;;;;;14.67;86.40;95684.94;5012792;28;20202;-63
2023/10/06 01:31:39;;;;;;;7.95;7.15;;;;;;;14.75;85.95;95682.91;5016724;28;20211;-65
2023/10/06 01:34:11;;;;;;;9.50;6.75;;;;;;;14.71;86.65;95678.81;5017628;28;20251;-62
2023/10/06 01:36:39;;;;;;;10.60;7.53;;;;;;;14.81;86.01;95685.25;5007926;28;20254;-63
2023/10/06 01:39:16;;;;;;;10.48;6.95;;;;;;;14.84;86.16;95679.16;5007028;28;20262;-63
2023/10/06 01:41:46;;;;;;;7.75;6.95;;;;;;;14.88;85.79;95681.50;5015783;28;20196;-63
2023/10/06 01:44:13;;;;;;;8.75;7.10;;;;;;;15.01;85.00;95688.72;5021331;28;20243;-63
2023/10/06 01:46:40;;;;;;;10.75;7.95;;;;;;;15.08;85.00;95690.97;5020727;28;20560;-63
2023/10/06 01:49:10;;;;;;;9.75;7.85;;;;;;;15.11;84.21;95688.25;5021858;28;20366;-65
2023/10/06 01:51:38;;;;;;;11.55;7.90;;;;;;;15.14;83.85;95692.41;5024751;28;20208;-63
2023/10/06 01:54:06;;;;;;;10.88;7.32;;;;;;;15.28;83.03;95692.69;5021938;28;20701;-64
2023/10/06 01:56:34;;;;;;;7.70;7.10;;;;;;;15.36;82.57;95695.75;5021309;28;20243;-63
2023/10/06 01:59:04;;;;;;;12.63;8.57;;;;;;;15.32;82.73;95692.50;5020126;28;20299;-62
2023/10/06 02:01:31;;;;;;;11.45;7.65;;;;;;;15.37;82.73;95694.00;5021458;28;20232;-63
2023/10/06 02:03:57;;;;;;;8.38;7.50;;;;;;;15.37;82.54;95699.13;5019980;28;20752;-63
2023/10/06 02:06:26;;;;;;;8.02;7.20;;;;;;;15.33;82.54;95701.03;5021001;28;20575;-61
2023/10/06 02:08:54;;;;;;;9.48;7.07;;;;;;;15.32;82.05;95694.25;5012113;28;20223;-64
2023/10/06 02:11:27;;;;;;;8.38;7.20;;;;;;;15.45;81.72;95697.09;5010745;28;20203;-61
2023/10/06 02:13:54;;;;;;;12.73;7.57;;;;;;;15.45;81.56;95699.66;5008089;28;20210;-61
2023/10/06 02:16:26;;;;;;;13.30;7.18;;;;;;;15.26;82.18;95704.72;5005349;28;20748;-63
2023/10/06 02:18:53;;;;;;;8.80;7.10;;;;;;;15.12;83.36;95707.00;5005925;28;20197;-63
2023/10/06 02:21:24;;;;;;;9.32;6.70;;;;;;;15.03;83.55;95712.53;5008705;28;20204;-62
2023/10/06 02:23:51;;;;;;;9.85;7.32;;;;;;;15.03;83.35;95703.13;5008831;28;20262;-63
2023/10/06 02:26:18;;;;;;;11.68;6.95;;;;;;;14.89;84.53;95708.78;5003317;28;20209;-63
2023/10/06 02:28:49;;;;;;;8.95;6.80;;;;;;;14.91;84.08;95708.72;5005383;28;20286;-63
2023/10/06 02:31:16;;;;;;;10.02;6.35;;;;;;;14.96;84.17;95710.19;5005168;28;20232;-64
2023/10/06 02:33:48;;;;;;;6.55;5.95;;;;;;;15.00;84.02;95715.19;5005289;28;20641;-63
2023/10/06 02:36:21;;;;;;;12.55;8.00;;;;;;;14.88;84.57;95719.91;5005810;28;20217;-64
2023/10/06 02:38:48;;;;;;;10.90;7.70;;;;;;;14.82;85.25;95717.63;5004494;28;20204;-62
2023/10/06 02:41:18;;;;;;;9.45;6.95;;;;;;;14.77;85.22;95714.41;5005890;28;20204;-63
2023/10/06 02:43:47;;;;;;;10.10;8.18;;;;;;;14.75;85.83;95728.13;5003826;28;20239;-63
2023/10/06 02:46:15;;;;;;;12.60;7.22;;;;;;;14.82;85.72;95730.41;5004561;28;20224;-63
2023/10/06 02:48:49;;;;;;;10.40;8.15;;;;;;;14.92;85.06;95724.00;5004331;28;20228;-62
2023/10/06 02:51:20;;;;;;;7.97;7.18;;;;;;;14.93;84.91;95715.44;5004752;28;20270;-63
2023/10/06 02:53:50;;;;;;;10.65;7.70;;;;;;;14.94;85.08;95723.94;5004194;28;20670;-63
2023/10/06 02:56:21;;;;;;;11.63;7.70;;;;;;;14.88;85.42;95713.94;5004229;28;20204;-64
2023/10/06 02:58:50;;;;;;;9.68;7.30;;;;;;;15.02;84.71;95715.97;5003877;28;20208;-64
2023/10/06 03:01:18;;;;;;;14.48;7.80;;;;;;;15.03;84.66;95712.53;5003844;28;20204;-63
2023/10/06 03:03:51;;;;;;;16.60;7.50;;;;;;;15.06;84.02;95720.06;5005003;28;20205;-63
2023/10/06 03:06:19;;;;;;;13.02;8.32;;;;;;;14.97;84.57;95714.44;5004873;28;20204;-62
2023/10/06 03:08:47;;;;;;;14.95;7.68;;;;;;;14.97;84.64;95711.88;5005158;28;20228;-64
2023/10/06 03:11:23;;;;;;;10.50;6.95;;;;;;;15.06;84.60;95707.28;5005351;28;20222;-63
2023/10/06 03:13:52;;;;;;;9.57;7.93;;;;;;;15.06;84.01;95707.28;5004540;28;20254;-62
2023/10/06 03:16:20;;;;;;;12.32;7.00;;;;;;;15.07;84.43;95717.47;5003905;28;20219;-62
2023/10/06 03:18:52;;;;;;;8.63;6.97;;;;;;;15.02;84.16;95691.22;5003212;28;20291;-63
2023/10/06 03:21:19;;;;;;;8.25;7.38;;;;;;;15.13;84.40;95718.91;5003535;28;20224;-63
2023/10/06 03:23:47;;;;;;;11.30;7.95;;;;;;;15.18;83.49;95717.84;5002725;28;20757;-64
2023/10/06 03:26:19;;;;;;;9.70;7.13;;;;;;;15.16;84.14;95718.78;5000725;28;20223;-64
2023/10/06 03:28:49;;;;;;;9.95;7.90;;;;;;;15.12;83.97;95717.25;5002272;28;20301;-63
2023/10/06 03:31:23;;;;;;;15.23;8.18;;;;;;;15.05;84.49;95710.72;4999896;28;20228;-62
2023/10/06 03:33:54;;;;;;;12.48;7.40;;;;;;;15.12;84.57;95717.25;5003338;28;20204;-64
2023/10/06 03:36:27;;;;;;;11.38;7.38;;;;;;;15.03;84.92;95722.75;5002820;28;20211;-62
2023/10/06 03:38:55;;;;;;;8.70;7.82;;;;;;;14.96;84.96;95717.03;5003104;28;20224;-62
2023/10/06 03:41:26;;;;;;;12.65;7.70;;;;;;;14.76;86.00;95717.84;5004130;28;20200;-63
2023/10/06 03:43:54;;;;;;;11.50;8.18;;;;;;;14.89;85.69;95713.88;5001551;28;20239;-62
2023/10/06 03:46:24;;;;;;;12.23;7.57;;;;;;;14.93;85.65;95723.13;5002090;28;20303;-64
2023/10/06 03:48:53;;;;;;;12.23;9.70;;;;;;;14.96;85.42;95712.75;5003413;28;20212;-65
2023/10/06 03:51:20;;;;;;;20.45;11.00;;;;;;;14.93;85.35;95718.00;5004100;28;20197;-64
2023/10/06 03:53:48;;;;;;;14.40;10.50;;;;;;;14.95;85.23;95711.09;5003943;28;20192;-62
2023/10/06 03:56:17;;;;;;;26.85;16.13;;;;;;;14.88;85.58;95714.78;5005774;28;20204;-63
2023/10/06 03:58:45;;;;;;;27.52;16.35;;;;;;;14.82;85.92;95716.78;5003518;28;20659;-63
2023/10/06 04:01:16;;;;;;;11.85;8.98;;;;;;;14.92;85.41;95715.50;5005264;28;20322;-64
2023/10/06 04:03:43;;;;;;;9.90;8.35;;;;;;;14.83;85.36;95716.72;5016338;28;20203;-64
2023/10/06 04:06:15;;;;;;;8.27;7.47;;;;;;;14.80;85.69;95711.72;5014029;28;20212;-64
2023/10/06 04:08:45;;;;;;;9.70;7.95;;;;;;;14.85;85.36;95709.78;5008634;28;20307;-64
2023/10/06 04:11:14;;;;;;;11.55;8.05;;;;;;;14.96;84.34;95709.38;5027081;28;20204;-62
2023/10/06 04:13:41;;;;;;;15.10;7.22;;;;;;;15.05;83.90;95715.84;5024167;28;20204;-63
2023/10/06 04:16:08;;;;;;;11.52;9.35;;;;;;;14.97;84.62;95724.66;5024087;28;20215;-64
2023/10/06 04:18:34;;;;;;;28.38;19.23;;;;;;;14.92;84.97;95723.19;5019853;28;20698;-64
2023/10/06 04:21:02;;;;;;;25.90;17.15;;;;;;;14.84;84.99;95723.50;5018727;28;20835;-63
2023/10/06 04:23:31;;;;;;;22.10;9.30;;;;;;;14.78;86.04;95728.84;5020719;28;20216;-63
2023/10/06 04:25:57;;;;;;;15.23;8.23;;;;;;;14.94;85.07;95727.34;5026686;28;20756;-62
2023/10/06 04:28:26;;;;;;;19.17;8.75;;;;;;;14.81;85.48;95738.97;5016492;28;20232;-64
2023/10/06 04:30:54;;;;;;;23.92;9.13;;;;;;;14.77;86.36;95734.03;5012634;28;20773;-61
2023/10/06 04:33:23;;;;;;;18.80;9.77;;;;;;;14.74;86.24;95736.72;5015481;28;20698;-65
2023/10/06 04:35:53;;;;;;;14.25;8.27;;;;;;;14.76;85.99;95734.91;5013332;28;20634;-63
2023/10/06 04:38:20;;;;;;;21.52;7.80;;;;;;;14.68;86.04;95731.81;5013632;28;20279;-64
2023/10/06 04:40:48;;;;;;;37.95;18.25;;;;;;;14.75;85.68;95740.94;5012135;28;20266;-61
2023/10/06 04:43:17;;;;;;;20.98;12.48;;;;;;;14.92;85.46;95730.84;5010319;28;20240;-63
2023/10/06 04:45:44;;;;;;;19.65;9.32;;;;;;;15.14;83.58;95731.66;5019083;28;20231;-62
2023/10/06 04:48:12;;;;;;;17.80;8.38;;;;;;;15.16;83.62;95739.28;5025292;28;20219;-61
2023/10/06 04:50:39;;;;;;;19.02;7.93;;;;;;;15.29;83.13;95740.44;5019236;28;20203;-64
2023/10/06 04:53:06;;;;;;;12.80;7.68;;;;;;;15.34;82.27;95751.34;5022545;28;20254;-64
2023/10/06 04:55:37;;;;;;;16.48;7.40;;;;;;;15.43;82.45;95748.38;5023009;28;20203;-64
2023/10/06 04:58:06;;;;;;;10.77;7.55;;;;;;;15.55;82.10;95753.00;5023293;28;20214;-63
2023/10/06 05:00:33;;;;;;;8.40;7.15;;;;;;;15.67;81.97;95758.53;5022074;28;20200;-63
2023/10/06 05:03:04;;;;;;;12.57;7.85;;;;;;;15.68;81.54;95758.47;5021977;28;20293;-63
2023/10/06 05:05:33;;;;;;;8.52;6.50;;;;;;;15.94;79.75;95762.47;5022063;28;20243;-63
2023/10/06 05:08:02;;;;;;;20.15;7.30;;;;;;;16.01;79.15;95766.44;5023815;28;20286;-63
2023/10/06 05:10:30;;;;;;;21.02;8.15;;;;;;;16.11;78.39;95772.81;5022432;28;20210;-61
2023/10/06 05:12:57;;;;;;;13.35;7.97;;;;;;;16.29;77.93;95778.88;5024887;28;20200;-62
2023/10/06 05:15:26;;;;;;;15.27;7.97;;;;;;;16.31;77.60;95777.94;5020973;28;20204;-64
2023/10/06 05:17:55;;;;;;;10.73;6.97;;;;;;;16.45;76.89;95776.47;5022821;28;20638;-64
2023/10/06 05:20:23;;;;;;;8.98;7.10;;;;;;;16.47;77.38;95775.50;5016552;28;20209;-63
2023/10/06 05:22:50;;;;;;;12.32;7.35;;;;;;;16.59;76.85;95784.34;5024878;28;20281;-64
2023/10/06 05:25:19;;;;;;;8.82;6.53;;;;;;;16.65;76.18;95784.94;5022293;28;20219;-63
2023/10/06 05:27:47;;;;;;;7.95;7.13;;;;;;;16.77;76.10;95788.69;5021693;28;20263;-64
2023/10/06 05:30:14;;;;;;;13.75;6.63;;;;;;;16.89;75.66;95785.53;5015024;28;20256;-64
2023/10/06 05:32:43;;;;;;;9.18;7.50;;;;;;;17.05;74.71;95782.28;5020252;28;20588;-65
2023/10/06 05:35:13;;;;;;;13.20;6.68;;;;;;;17.17;74.09;95789.38;5024574;28;20290;-65
2023/10/06 05:37:43;;;;;;;27.50;6.45;;;;;;;17.28;73.61;95789.72;5022347;28;20673;-65
2023/10/06 05:40:20;;;;;;;11.02;7.53;;;;;;;17.45;73.19;95787.13;5026971;28;20207;-64
2023/10/06 05:42:49;;;;;;;12.75;7.13;;;;;;;17.58;71.74;95793.31;5023007;28;20804;-63
2023/10/06 05:45:18;;;;;;;9.27;7.15;;;;;;;17.61;72.29;95798.31;5024445;28;20647;-62
2023/10/06 05:47:46;;;;;;;10.18;7.60;;;;;;;17.70;72.03;95798.81;5018204;28;20676;-63
2023/10/06 05:50:18;;;;;;;8.30;7.07;;;;;;;17.90;70.89;95798.66;5020846;28;20297;-64
2023/10/06 05:52:51;;;;;;;9.60;6.82;;;;;;;17.99;70.51;95805.91;5024947;28;20206;-65
2023/10/06 05:55:19;;;;;;;8.77;7.97;;;;;;;17.99;71.19;95805.91;5022719;28;20196;-64
2023/10/06 05:57:51;;;;;;;12.07;6.43;;;;;;;18.14;70.87;95807.69;5023091;28;20204;-67
2023/10/06 06:00:24;;;;;;;8.38;6.32;;;;;;;18.26;70.12;95801.91;5024346;28;20290;-64
2023/10/06 06:02:53;;;;;;;10.68;5.97;;;;;;;18.46;69.37;95810.34;5026243;28;20273;-63
2023/10/06 06:05:20;;;;;;;10.68;5.93;;;;;;;18.58;68.59;95810.50;5024441;28;20708;-63
2023/10/06 06:07:47;;;;;;;8.18;6.20;;;;;;;18.67;68.48;95814.38;5028141;28;20760;-62
2023/10/06 06:10:15;;;;;;;8.57;6.82;;;;;;;18.83;68.14;95812.63;5023773;28;20248;-70
2023/10/06 06:12:42;;;;;;;6.20;5.55;;;;;;;18.97;67.30;95820.44;5018847;28;20205;-63
2023/10/06 06:15:11;;;;;;;10.25;5.63;;;;;;;19.14;66.59;95816.94;5016728;28;20231;-64
2023/10/06 06:17:38;;;;;;;12.85;6.07;;;;;;;19.28;66.12;95819.59;5021055;28;20199;-63
2023/10/06 06:20:08;;;;;;;10.27;5.88;;;;;;;19.54;65.50;95825.91;5017212;28;20246;-64
2023/10/06 06:22:37;;;;;;;7.60;5.95;;;;;;;20.32;63.13;95834.22;5023438;28;20212;-64
2023/10/06 06:25:06;;;;;;;6.93;6.03;;;;;;;21.58;59.57;95821.22;5008439;28;20204;-62
2023/10/06 06:27:32;;;;;;;6.35;5.72;;;;;;;22.56;56.48;95823.28;5009505;28;20211;-65
2023/10/06 06:29:59;;;;;;;7.28;5.72;;;;;;;22.94;54.59;95819.81;5006587;28;20224;-64
2023/10/06 06:32:26;;;;;;;7.53;5.60;;;;;;;22.94;54.59;95819.81;5005255;28;20705;-66
2023/10/06 06:34:53;;;;;;;9.65;5.72;;;;;;;22.94;54.59;95819.81;5006137;28;20212;-64
2023/10/06 06:37:23;;;;;;;6.13;5.53;;;;;;;22.94;54.59;95819.81;5005253;28;20768;-64
2023/10/06 06:39:49;;;;;;;10.30;5.88;;;;;;;22.94;54.59;95819.81;5004515;28;20600;-64
2023/10/06 06:42:18;;;;;;;7.70;6.25;;;;;;;22.94;54.59;95819.81;5005315;28;20232;-63
2023/10/06 06:44:47;;;;;;;7.22;5.80;;;;;;;22.94;54.59;95819.81;5005231;28;20291;-64
2023/10/06 06:47:16;;;;;;;8.15;5.53;;;;;;;22.94;54.59;95819.81;4998491;28;20219;-63
2023/10/06 06:49:44;;;;;;;7.57;5.40;;;;;;;22.94;54.59;95819.81;5007742;28;20259;-63
2023/10/06 06:52:12;;;;;;;10.75;5.85;;;;;;;22.94;54.59;95819.81;5005613;28;20659;-64
2023/10/06 06:54:46;;;;;;;12.23;6.20;;;;;;;22.94;54.59;95819.81;5013805;28;20304;-63
2023/10/06 06:57:15;;;;;;;12.90;6.15;;;;;;;22.94;54.59;95819.81;5016803;28;20204;-65
2023/10/06 06:59:44;;;;;;;10.15;6.35;;;;;;;22.94;54.59;95819.81;5020240;28;20223;-64
2023/10/06 07:02:11;;;;;;;10.43;5.30;;;;;;;22.94;54.59;95819.81;5016645;28;20607;-64
2023/10/06 07:04:38;;;;;;;16.60;6.30;;;;;;;22.94;54.59;95819.81;5013899;28;20658;-63
2023/10/06 07:07:05;;;;;;;13.88;7.40;;;;;;;22.94;54.59;95819.81;5017042;28;20232;-64
2023/10/06 07:09:31;;;;;;;11.75;7.32;;;;;;;22.94;54.59;95819.81;5013879;28;20220;-65
2023/10/06 07:11:59;;;;;;;18.05;6.90;;;;;;;22.94;54.59;95819.81;5020120;28;20286;-64
2023/10/06 07:14:27;;;;;;;8.32;6.60;;;;;;;22.94;54.59;95819.81;5022546;28;20227;-65
2023/10/06 07:16:56;;;;;;;9.38;6.10;;;;;;;22.94;54.59;95819.81;5015922;28;20290;-66
2023/10/06 07:19:23;;;;;;;12.07;7.28;;;;;;;22.94;54.59;95819.81;5018357;28;20274;-64
2023/10/06 07:21:50;;;;;;;13.93;6.10;;;;;;;22.94;54.59;95819.81;5009728;28;20211;-64
2023/10/06 07:24:18;;;;;;;13.73;6.68;;;;;;;22.94;54.59;95819.81;5017305;28;20235;-62
2023/10/06 07:26:45;;;;;;;12.73;6.75;;;;;;;22.94;54.59;95819.81;5015596;28;20204;-63
2023/10/06 07:29:14;;;;;;;6.80;5.25;;;;;;;22.94;54.59;95819.81;5006687;28;20783;-66
2023/10/06 07:31:41;;;;;;;18.55;6.25;;;;;;;22.94;54.59;95819.81;5010902;28;20761;-64
2023/10/06 07:34:07;;;;;;;10.93;6.85;;;;;;;22.94;54.59;95819.81;5009011;28;20208;-64
2023/10/06 07:36:35;;;;;;;6.45;5.70;;;;;;;22.94;54.59;95819.81;5019293;28;20277;-63
2023/10/06 07:39:03;;;;;;;14.57;6.28;;;;;;;22.94;54.59;95819.81;5019088;28;20227;-64
2023/10/06 07:41:30;;;;;;;11.02;5.82;;;;;;;22.94;54.59;95819.81;5014126;28;20200;-64
2023/10/06 07:43:57;;;;;;;9.10;6.93;;;;;;;22.94;54.59;95819.81;5019181;28;20365;-65
2023/10/06 07:46:29;;;;;;;19.63;5.95;;;;;;;22.94;54.59;95819.81;5010076;28;20298;-66
2023/10/06 07:48:57;;;;;;;10.25;5.78;;;;;;;22.94;54.59;95819.81;5009329;28;20212;-62
2023/10/06 07:51:26;;;;;;;15.18;6.10;;;;;;;22.94;54.59;95819.81;5013572;28;20270;-65
2023/10/06 07:53:52;;;;;;;10.63;6.35;;;;;;;22.94;54.59;95819.81;5016024;28;20240;-66
2023/10/06 07:56:19;;;;;;;8.98;5.88;;;;;;;22.94;54.59;95819.81;5021469;28;20240;-63
2023/10/06 07:58:46;;;;;;;11.45;5.32;;;;;;;22.94;54.59;95819.81;5014548;28;20362;-66
2023/10/06 08:01:13;;;;;;;9.75;5.85;;;;;;;22.94;54.59;95819.81;5016990;28;20266;-65
2023/10/06 08:03:42;;;;;;;6.93;5.82;;;;;;;22.94;54.59;95819.81;5013725;28;20200;-65
2023/10/06 08:06:10;;;;;;;10.32;5.47;;;;;;;22.94;54.59;95819.81;5009282;28;20208;-65
2023/10/06 08:08:38;;;;;;;11.48;6.80;;;;;;;22.94;54.59;95819.81;5007896;28;20311;-64
2023/10/06 08:11:06;;;;;;;8.70;5.40;;;;;;;22.94;54.59;95819.81;5011042;28;20221;-64
2023/10/06 08:13:33;;;;;;;9.10;6.35;;;;;;;22.94;54.59;95819.81;5011746;28;20212;-66
2023/10/06 08:16:00;;;;;;;15.57;6.47;;;;;;;22.94;54.59;95819.81;5011349;28;20199;-63
2023/10/06 08:18:29;;;;;;;9.85;6.22;;;;;;;22.94;54.59;95819.81;5015684;28;20203;-65
2023/10/06 08:21:00;;;;;;;7.80;6.65;;;;;;;22.94;54.59;95819.81;5012519;28;20196;-63
2023/10/06 08:23:27;;;;;;;12.60;5.72;;;;;;;22.94;54.59;95819.81;5006814;28;20235;-65
2023/10/06 08:25:56;;;;;;;7.65;6.03;;;;;;;22.94;54.59;95819.81;5013053;28;20705;-66
2023/10/06 08:28:23;;;;;;;17.20;5.85;;;;;;;22.94;54.59;95819.81;5011657;28;20281;-66
2023/10/06 08:30:50;;;;;;;7.55;5.75;;;;;;;22.94;54.59;95819.81;5011905;28;20236;-63
2023/10/06 08:33:16;;;;;;;8.63;6.97;;;;;;;22.94;54.59;95819.81;5006706;28;20296;-66
2023/10/06 08:35:44;;;;;;;7.65;5.80;;;;;;;22.94;54.59;95819.81;5010464;28;20290;-63
2023/10/06 08:38:12;;;;;;;8.13;6.00;;;;;;;22.94;54.59;95819.81;5008083;28;20200;-62
2023/10/06 08:40:42;;;;;;;8.93;6.20;;;;;;;22.94;54.59;95819.81;5015301;28;20258;-64
2023/10/06 08:43:10;;;;;;;11.20;7.22;;;;;;;22.94;54.59;95819.81;5010853;28;20308;-65
2023/10/06 08:45:41;;;;;;;28.63;22.90;;;;;;;22.94;54.59;95819.81;5015246;28;20204;-72
2023/10/06 08:48:13;;;;;;;17.02;10.93;;;;;;;22.94;54.59;95819.81;5012679;28;20206;-70
2023/10/06 08:50:43;;;;;;;24.05;12.85;;;;;;;22.94;54.59;95819.81;5014884;28;21340;-68
2023/10/06 08:53:13;;;;;;;22.90;14.10;;;;;;;22.94;54.59;95819.81;5017696;28;20208;-70
2023/10/06 08:55:43;;;;;;;13.65;9.23;;;;;;;22.94;54.59;95819.81;5013658;28;20204;-71
2023/10/06 08:58:13;;;;;;;14.07;9.30;;;;;;;22.94;54.59;95819.81;5020832;28;20693;-67
2023/10/06 09:00:43;;;;;;;10.27;8.77;;;;;;;22.94;54.59;95819.81;5024309;28;20207;-69
2023/10/06 09:03:11;;;;;;;17.15;8.05;;;;;;;22.94;54.59;95819.81;5013721;28;20606;-69
2023/10/06 09:05:39;;;;;;;17.60;7.32;;;;;;;22.94;54.59;95819.81;5019069;28;20637;-69
2023/10/06 09:08:08;;;;;;;15.45;7.15;;;;;;;22.94;54.59;95819.81;5012324;28;20208;-69
2023/10/06 09:10:38;;;;;;;8.82;6.30;;;;;;;22.94;54.59;95819.81;5012713;28;20260;-68
2023/10/06 09:13:07;;;;;;;7.85;6.50;;;;;;;22.94;54.59;95819.81;5015143;28;20231;-68
2023/10/06 09:15:35;;;;;;;13.00;6.85;;;;;;;22.94;54.59;95819.81;5021527;28;20207;-69
2023/10/06 09:18:03;;;;;;;9.25;6.03;;;;;;;22.94;54.59;95819.81;5018062;28;20210;-69
2023/10/06 09:20:36;;;;;;;10.25;6.45;;;;;;;22.94;54.59;95819.81;5021162;28;20295;-69
2023/10/06 09:23:04;;;;;;;6.60;6.00;;;;;;;22.94;54.59;95819.81;5015232;28;20209;-70
2023/10/06 09:25:45;;;;;;;13.02;6.22;;;;;;;22.94;54.59;95819.81;5013058;28;20228;-69
2023/10/06 09:28:14;;;;;;;15.48;7.95;;;;;;;22.94;54.59;95819.81;5011493;28;20201;-67
2023/10/06 09:30:56;;;;;;;9.20;5.93;;;;;;;22.94;54.59;95819.81;5016305;28;20307;-70
2023/10/06 09:33:24;;;;;;;8.90;6.60;;;;;;;22.94;54.59;95819.81;5011599;28;20207;-69
2023/10/06 09:36:01;;;;;;;7.18;6.25;;;;;;;22.94;54.59;95819.81;5012053;28;20217;-69
2023/10/06 09:38:28;;;;;;;9.05;6.28;;;;;;;22.94;54.59;95819.81;5016706;28;20253;-69
2023/10/06 09:40:58;;;;;;;12.77;6.20;;;;;;;22.94;54.59;95819.81;5016780;28;20956;-69
2023/10/06 09:43:27;;;;;;;10.57;6.35;;;;;;;22.94;54.59;95819.81;5006884;28;20267;-68
2023/10/06 09:45:57;;;;;;;13.48;6.53;;;;;;;22.94;54.59;95819.81;5014881;28;20681;-68
2023/10/06 09:48:32;;;;;;;8.65;6.00;;;;;;;22.94;54.59;95819.81;5015955;28;20265;-69
2023/10/06 09:51:01;;;;;;;16.42;7.18;;;;;;;22.94;54.59;95819.81;5019781;28;20219;-68
2023/10/06 09:53:30;;;;;;;7.05;5.68;;;;;;;22.94;54.59;95819.81;5016895;28;20207;-69
2023/10/06 09:56:00;;;;;;;8.07;6.18;;;;;;;22.94;54.59;95819.81;5003064;28;20767;-69
2023/10/06 09:58:27;;;;;;;9.00;6.47;;;;;;;22.94;54.59;95819.81;5007832;28;20208;-69
2023/10/06 10:00:55;;;;;;;9.20;6.63;;;;;;;22.94;54.59;95819.81;5017965;28;20215;-69
2023/10/06 10:03:22;;;;;;;11.82;6.75;;;;;;;22.94;54.59;95819.81;5024462;28;20195;-70
2023/10/06 10:05:52;;;;;;;9.10;6.80;;;;;;;22.94;54.59;95819.81;5022566;28;20215;-69
2023/10/06 10:08:22;;;;;;;8.65;5.97;;;;;;;22.94;54.59;95819.81;5019079;28;20298;-70
2023/10/06 10:10:52;;;;;;;9.85;6.28;;;;;;;22.94;54.59;95819.81;5023402;28;20229;-68
2023/10/06 10:13:59;;;;;;;10.68;6.68;;;;;;;22.94;54.59;95819.81;5023433;28;20204;-69
2023/10/06 10:16:41;;;;;;;10.77;6.13;;;;;;;22.94;54.59;95819.81;4987685;28;20273;-67
2023/10/06 10:19:12;;;;;;;7.35;5.80;;;;;;;22.94;54.59;95819.81;5013435;28;20285;-69
2023/10/06 10:21:41;;;;;;;10.75;5.53;;;;;;;22.94;54.59;95819.81;5011159;28;20200;-69
2023/10/06 10:24:12;;;;;;;9.30;5.22;;;;;;;22.94;54.59;95819.81;5006182;28;20603;-67
2023/10/06 10:26:39;;;;;;;8.10;5.40;;;;;;;22.94;54.59;95819.81;5006550;28;20211;-69
2023/10/06 10:29:32;;;;;;;6.97;5.07;;;;;;;22.94;54.59;95819.81;5008127;28;20236;-69
2023/10/06 10:32:01;;;;;;;18.48;6.10;;;;;;;22.94;54.59;95819.81;5003791;28;20319;-68
2023/10/06 10:34:33;;;;;;;8.68;6.10;;;;;;;22.94;54.59;95819.81;5005911;28;20204;-69
2023/10/06 10:37:17;;;;;;;7.00;6.10;;;;;;;22.94;54.59;95819.81;5011057;28;20262;-67
2023/10/06 10:39:49;;;;;;;10.48;5.85;;;;;;;22.94;54.59;95819.81;5010659;28;20286;-68
2023/10/06 10:42:18;;;;;;;6.50;5.57;;;;;;;22.94;54.59;95819.81;5007420;28;20204;-69
2023/10/06 10:44:48;;;;;;;7.00;6.30;;;;;;;22.94;54.59;95819.81;5003906;28;20236;-69
2023/10/06 10:47:16;;;;;;;8.73;5.63;;;;;;;22.94;54.59;95819.81;5005206;28;20295;-68
2023/10/06 10:49:44;;;;;;;8.43;5.80;;;;;;;22.94;54.59;95819.81;5005382;28;20208;-68
2023/10/06 10:52:13;;;;;;;8.77;4.53;;;;;;;22.94;54.59;95819.81;5005748;28;20238;-67
2023/10/06 10:54:42;;;;;;;5.57;5.00;;;;;;;22.94;54.59;95819.81;5006905;28;20204;-67
2023/10/06 10:57:13;;;;;;;7.55;5.90;;;;;;;22.94;54.59;95819.81;5007284;28;20208;-69
2023/10/06 11:00:15;;;;;;;8.13;6.05;;;;;;;22.94;54.59;95819.81;5009149;28;20201;-68
2023/10/06 11:02:44;;;;;;;7.97;6.07;;;;;;;22.94;54.59;95819.81;5023740;28;20695;-69
2023/10/06 11:05:11;;;;;;;6.22;5.72;;;;;;;22.94;54.59;95819.81;5021849;28;20262;-68
2023/10/06 11:07:39;;;;;;;9.15;4.95;;;;;;;22.94;54.59;95819.81;5023268;28;20204;-69
2023/10/06 11:10:08;;;;;;;5.68;5.18;;;;;;;22.94;54.59;95819.81;5021922;28;20232;-68
2023/10/06 11:12:35;;;;;;;7.00;5.95;;;;;;;22.94;54.59;95819.81;5023877;28;20212;-69
2023/10/06 11:15:13;;;;;;;6.65;5.53;;;;;;;22.94;54.59;95819.81;5017501;28;20200;-68
2023/10/06 11:17:43;;;;;;;7.65;5.50;;;;;;;22.94;54.59;95819.81;5020073;28;20202;-68
2023/10/06 11:20:16;;;;;;;17.05;5.95;;;;;;;22.94;54.59;95819.81;5008549;28;20709;-70
2023/10/06 11:22:54;;;;;;;7.50;5.00;;;;;;;22.94;54.59;95819.81;5006257;28;20705;-70
2023/10/06 11:25:26;;;;;;;7.80;4.90;;;;;;;22.94;54.59;95819.81;5004180;28;20302;-68
2023/10/06 11:27:58;;;;;;;6.00;5.25;;;;;;;22.94;54.59;95819.81;5002865;28;20204;-69
2023/10/06 11:30:28;;;;;;;5.78;5.28;;;;;;;22.94;54.59;95819.81;5003586;28;20694;-70
2023/10/06 11:32:58;;;;;;;4.78;4.38;;;;;;;22.94;54.59;95819.81;5004523;28;20208;-69
2023/10/06 11:35:25;;;;;;;7.47;5.68;;;;;;;22.94;54.59;95819.81;5003728;28;20302;-71
2023/10/06 11:37:52;;;;;;;8.57;5.10;;;;;;;22.94;54.59;95819.81;5002305;28;20694;-69
2023/10/06 11:40:22;;;;;;;4.57;4.18;;;;;;;22.94;54.59;95819.81;5003191;28;20756;-69